createdAt,value
2017-12-25T00:00:51.373Z,10.60
2017-12-25T00:03:19.100Z,10.83
2017-12-25T00:05:46.912Z,10.97
2017-12-25T00:08:14.624Z,10.90
2017-12-25T00:10:42.312Z,10.57
2017-12-25T00:13:10.189Z,10.10
2017-12-25T00:15:37.882Z,9.77
2017-12-25T00:18:05.558Z,9.57
2017-12-25T00:20:33.280Z,9.57
2017-12-25T00:23:01.023Z,9.50
2017-12-25T00:25:28.719Z,7.57
2017-12-25T00:27:56.405Z,8.00
2017-12-25T00:30:24.061Z,6.40
2017-12-25T00:32:51.749Z,5.30
2017-12-25T00:35:25.892Z,5.20
2017-12-25T00:37:53.590Z,5.27
2017-12-25T00:40:21.298Z,5.23
2017-12-25T00:42:48.989Z,5.17
2017-12-25T00:45:16.676Z,5.30
2017-12-25T00:47:44.341Z,5.73
2017-12-25T00:50:12.037Z,5.20
2017-12-25T00:52:40.235Z,4.40
2017-12-25T00:55:07.952Z,4.93
2017-12-25T00:57:35.609Z,5.07
2017-12-25T01:00:03.352Z,5.87
2017-12-25T01:02:31.237Z,5.80
2017-12-25T01:05:02.220Z,6.93
2017-12-25T01:07:30.732Z,6.93
2017-12-25T01:09:58.395Z,8.63
2017-12-25T01:12:26.097Z,8.30
2017-12-25T01:14:53.810Z,9.17
2017-12-25T01:17:21.562Z,9.30
2017-12-25T01:19:50.040Z,10.63
2017-12-25T01:22:17.812Z,9.73
2017-12-25T01:24:45.543Z,10.73
2017-12-25T01:27:13.181Z,10.43
2017-12-25T01:29:40.978Z,8.73
2017-12-25T01:32:08.711Z,9.60
2017-12-25T01:34:38.454Z,9.70
2017-12-25T01:37:06.193Z,9.37
2017-12-25T01:39:33.905Z,8.90
2017-12-25T01:42:01.605Z,8.70
2017-12-25T01:44:29.304Z,8.03
2017-12-25T01:47:05.962Z,8.00
2017-12-25T01:49:33.630Z,6.67
2017-12-25T01:52:01.880Z,7.10
2017-12-25T01:54:29.598Z,7.43
2017-12-25T01:57:04.094Z,5.90
2017-12-25T01:59:38.594Z,5.90
2017-12-25T02:02:09.035Z,5.60
2017-12-25T02:04:37.690Z,4.23
2017-12-25T02:07:17.211Z,3.73
2017-12-25T02:09:44.902Z,4.47
2017-12-25T02:12:12.599Z,5.10
2017-12-25T02:14:40.240Z,5.40
2017-12-25T02:17:07.937Z,4.70
2017-12-25T02:19:35.674Z,5.10
2017-12-25T02:22:03.383Z,5.03
2017-12-25T02:24:31.870Z,4.90
2017-12-25T02:26:59.621Z,5.53
2017-12-25T02:29:27.317Z,5.37
2017-12-25T02:31:55.652Z,5.60
2017-12-25T02:34:24.444Z,5.83
2017-12-25T02:36:52.444Z,5.57
2017-12-25T02:39:20.889Z,5.87
2017-12-25T02:41:48.575Z,5.70
2017-12-25T02:44:16.304Z,5.60
2017-12-25T02:46:43.988Z,6.20
2017-12-25T02:49:11.654Z,6.50
2017-12-25T02:51:39.482Z,6.07
2017-12-25T02:54:07.218Z,6.70
2017-12-25T02:56:35.685Z,7.23
2017-12-25T02:59:03.372Z,6.93
2017-12-25T03:01:31.070Z,6.90
2017-12-25T03:03:59.354Z,7.67
2017-12-25T03:06:27.033Z,7.87
2017-12-25T03:08:54.699Z,7.30
2017-12-25T03:11:22.368Z,7.57
2017-12-25T03:13:50.028Z,7.53
2017-12-25T03:16:17.747Z,7.23
2017-12-25T03:18:45.437Z,8.53
2017-12-25T03:21:13.160Z,9.67
2017-12-25T03:23:40.837Z,8.40
2017-12-25T03:26:08.520Z,9.80
2017-12-25T03:28:36.253Z,11.27
2017-12-25T03:31:03.959Z,11.63
2017-12-25T03:33:31.729Z,11.77
2017-12-25T03:35:59.418Z,12.80
2017-12-25T03:38:27.129Z,12.30
2017-12-25T03:40:54.847Z,13.60
2017-12-25T03:43:22.556Z,13.00
2017-12-25T03:45:50.255Z,13.33
2017-12-25T03:48:17.962Z,12.80
2017-12-25T03:50:45.665Z,11.97
2017-12-25T03:53:13.390Z,12.60
2017-12-25T03:55:43.201Z,12.87
2017-12-25T03:58:10.929Z,12.30
2017-12-25T04:00:38.642Z,11.97
2017-12-25T04:03:06.345Z,12.47
2017-12-25T04:05:34.068Z,11.73
2017-12-25T04:08:01.805Z,11.87
2017-12-25T04:10:29.501Z,13.40
2017-12-25T04:12:57.218Z,13.70
2017-12-25T04:15:25.021Z,11.50
2017-12-25T04:17:52.775Z,13.37
2017-12-25T04:20:20.582Z,14.20
2017-12-25T04:22:48.280Z,14.87
2017-12-25T04:25:19.126Z,14.93
2017-12-25T04:27:46.800Z,15.20
2017-12-25T04:30:15.270Z,12.67
2017-12-25T04:32:42.994Z,14.97
2017-12-25T04:35:10.682Z,14.60
2017-12-25T04:37:38.380Z,15.40
2017-12-25T04:40:06.051Z,13.10
2017-12-25T04:42:33.734Z,15.97
2017-12-25T04:45:01.408Z,14.37
2017-12-25T04:47:29.600Z,16.00
2017-12-25T04:49:57.295Z,14.33
2017-12-25T04:52:25.357Z,13.77
2017-12-25T04:55:06.327Z,12.67
2017-12-25T04:57:34.000Z,14.20
2017-12-25T05:00:01.696Z,14.50
2017-12-25T05:02:29.403Z,15.23
2017-12-25T05:04:57.073Z,16.10
2017-12-25T05:07:24.761Z,15.87
2017-12-25T05:09:52.588Z,16.10
2017-12-25T05:12:20.291Z,16.30
2017-12-25T05:14:48.015Z,16.40
2017-12-25T05:17:15.734Z,15.97
2017-12-25T05:19:43.407Z,16.90
2017-12-25T05:22:11.858Z,17.27
2017-12-25T05:24:39.820Z,14.97
2017-12-25T05:27:07.516Z,16.20
2017-12-25T05:29:35.200Z,15.17
2017-12-25T05:32:02.893Z,14.50
2017-12-25T05:34:30.761Z,15.87
2017-12-25T05:36:58.430Z,14.47
2017-12-25T05:39:26.145Z,16.30
2017-12-25T05:41:53.869Z,15.40
2017-12-25T05:44:21.544Z,11.50
2017-12-25T05:46:49.222Z,15.33
2017-12-25T05:49:17.669Z,14.33
2017-12-25T05:51:45.386Z,14.90
2017-12-25T05:54:14.251Z,14.10
2017-12-25T05:56:42.713Z,15.30
2017-12-25T05:59:10.451Z,16.60
2017-12-25T06:01:38.151Z,15.23
2017-12-25T06:04:05.875Z,14.77
2017-12-25T06:06:33.566Z,14.50
2017-12-25T06:09:01.289Z,15.70
2017-12-25T06:11:28.980Z,15.63
2017-12-25T06:13:56.675Z,15.57
2017-12-25T06:16:24.612Z,13.87
2017-12-25T06:18:52.335Z,11.93
2017-12-25T06:21:20.057Z,12.33
2017-12-25T06:23:47.772Z,13.57
2017-12-25T06:26:15.491Z,14.40
2017-12-25T06:28:43.142Z,14.07
2017-12-25T06:31:10.857Z,14.10
2017-12-25T06:33:38.537Z,13.87
2017-12-25T06:36:06.255Z,13.97
2017-12-25T06:38:33.979Z,10.63
2017-12-25T06:41:01.837Z,13.87
2017-12-25T06:43:29.518Z,12.63
2017-12-25T06:46:00.767Z,13.47
2017-12-25T06:48:28.507Z,14.10
2017-12-25T06:50:56.209Z,15.40
2017-12-25T06:53:23.903Z,14.00
2017-12-25T06:55:51.583Z,16.00
2017-12-25T06:58:19.247Z,14.50
2017-12-25T07:00:46.925Z,15.30
2017-12-25T07:03:16.485Z,15.50
2017-12-25T07:05:44.194Z,15.93
2017-12-25T07:08:11.883Z,16.00
2017-12-25T07:10:39.647Z,15.37
2017-12-25T07:13:07.375Z,14.23
2017-12-25T07:15:35.171Z,13.77
2017-12-25T07:18:02.888Z,14.33
2017-12-25T07:23:04.204Z,12.83
2017-12-25T07:25:31.833Z,13.27
2017-12-25T07:27:59.546Z,14.20
2017-12-25T07:30:27.205Z,14.70
2017-12-25T07:32:54.885Z,13.33
2017-12-25T07:35:26.544Z,10.83
2017-12-25T07:37:54.719Z,13.77
2017-12-25T07:40:22.548Z,13.13
2017-12-25T07:42:50.244Z,12.47
2017-12-25T07:45:25.527Z,12.97
2017-12-25T07:47:54.098Z,12.73
2017-12-25T07:50:21.795Z,13.50
2017-12-25T07:52:49.915Z,12.47
2017-12-25T07:55:23.401Z,11.40
2017-12-25T07:57:51.100Z,11.90
2017-12-25T08:00:19.490Z,11.93
2017-12-25T08:02:47.978Z,11.77
2017-12-25T08:05:16.280Z,9.87
2017-12-25T08:07:43.949Z,10.17
2017-12-25T08:10:11.669Z,10.43
2017-12-25T08:12:39.360Z,10.67
2017-12-25T08:15:07.026Z,10.80
2017-12-25T08:17:35.301Z,11.10
2017-12-25T08:20:02.973Z,9.83
2017-12-25T08:22:30.704Z,9.27
2017-12-25T08:25:01.978Z,10.83
2017-12-25T08:27:29.657Z,10.20
2017-12-25T08:29:57.579Z,9.93
2017-12-25T08:32:26.076Z,10.23
2017-12-25T08:34:53.760Z,10.20
2017-12-25T08:37:21.490Z,9.73
2017-12-25T08:39:49.202Z,10.17
2017-12-25T08:42:16.912Z,10.27
2017-12-25T08:44:44.615Z,10.23
2017-12-25T08:47:12.301Z,9.90
2017-12-25T08:49:39.986Z,9.77
2017-12-25T08:52:07.597Z,9.77
2017-12-25T08:54:39.776Z,10.03
2017-12-25T08:57:07.471Z,10.10
2017-12-25T08:59:35.153Z,9.10
2017-12-25T09:02:03.088Z,9.27
2017-12-25T09:04:30.714Z,8.20
2017-12-25T09:07:00.419Z,7.93
2017-12-25T09:09:28.598Z,7.97
2017-12-25T09:14:30.038Z,7.73
2017-12-25T09:16:57.708Z,6.90
2017-12-25T09:19:25.387Z,7.17
2017-12-25T09:21:53.534Z,7.30
2017-12-25T09:24:22.867Z,5.77
2017-12-25T09:26:52.067Z,5.73
2017-12-25T09:29:20.382Z,7.00
2017-12-25T09:31:48.080Z,6.57
2017-12-25T09:34:16.500Z,5.50
2017-12-25T09:36:44.197Z,6.47
2017-12-25T09:39:11.891Z,4.60
2017-12-25T09:41:39.570Z,6.40
2017-12-25T09:44:07.248Z,5.93
2017-12-25T09:46:34.917Z,5.97
2017-12-25T09:49:02.646Z,5.73
2017-12-25T09:51:30.764Z,5.53
2017-12-25T09:53:59.364Z,6.40
2017-12-25T09:56:27.104Z,6.20
2017-12-25T09:58:54.777Z,5.73
2017-12-25T10:01:22.485Z,6.67
2017-12-25T10:03:55.951Z,6.33
2017-12-25T10:06:24.023Z,5.90
2017-12-25T10:08:51.733Z,5.97
2017-12-25T10:11:19.458Z,5.27
2017-12-25T10:13:54.179Z,5.37
2017-12-25T10:16:21.881Z,5.90
2017-12-25T10:18:49.550Z,5.50
2017-12-25T10:21:17.225Z,5.47
2017-12-25T10:23:44.913Z,5.30
2017-12-25T10:26:13.374Z,4.67
2017-12-25T10:28:41.074Z,5.07
2017-12-25T10:31:08.760Z,4.70
2017-12-25T10:33:36.427Z,5.00
2017-12-25T10:36:04.159Z,4.50
2017-12-25T10:38:31.853Z,4.53
2017-12-25T10:40:59.537Z,4.67
2017-12-25T10:43:27.777Z,4.40
2017-12-25T10:45:55.476Z,5.07
2017-12-25T10:48:23.186Z,4.83
2017-12-25T10:50:50.856Z,4.40
2017-12-25T10:53:18.541Z,4.63
2017-12-25T10:55:46.226Z,5.13
2017-12-25T10:58:13.916Z,5.33
2017-12-25T11:00:47.860Z,4.80
2017-12-25T11:03:15.555Z,5.17
2017-12-25T11:05:46.635Z,4.77
2017-12-25T11:08:14.317Z,5.93
2017-12-25T11:10:42.013Z,4.87
2017-12-25T11:13:10.095Z,5.53
2017-12-25T11:15:37.827Z,5.53
2017-12-25T11:18:05.525Z,6.00
2017-12-25T11:20:33.151Z,5.87
2017-12-25T11:23:00.773Z,6.83
2017-12-25T11:25:28.484Z,6.70
2017-12-25T11:27:56.183Z,6.20
2017-12-25T11:30:23.860Z,5.97
2017-12-25T11:32:51.563Z,6.63
2017-12-25T11:35:19.573Z,5.87
2017-12-25T11:37:52.324Z,6.40
2017-12-25T11:40:26.193Z,6.70
2017-12-25T11:42:55.078Z,5.83
2017-12-25T11:45:23.348Z,6.50
2017-12-25T11:47:51.065Z,6.80
2017-12-25T11:50:18.738Z,5.70
2017-12-25T11:52:46.411Z,5.80
2017-12-25T11:55:14.062Z,5.83
2017-12-25T11:57:41.788Z,5.80
2017-12-25T12:00:10.242Z,5.70
2017-12-25T12:02:37.920Z,6.00
2017-12-25T12:05:05.612Z,5.70
2017-12-25T12:07:33.305Z,6.60
2017-12-25T12:10:01.014Z,6.13
2017-12-25T12:12:28.696Z,5.70
2017-12-25T12:14:59.365Z,5.27
2017-12-25T12:17:27.075Z,5.73
2017-12-25T12:19:54.996Z,4.80
2017-12-25T12:22:22.701Z,4.70
2017-12-25T12:24:50.422Z,5.07
2017-12-25T12:27:18.144Z,5.07
2017-12-25T12:29:45.846Z,4.80
2017-12-25T12:32:13.531Z,4.20
2017-12-25T12:34:41.213Z,4.50
2017-12-25T12:37:08.912Z,3.97
2017-12-25T12:39:36.652Z,4.03
2017-12-25T12:42:04.368Z,4.97
2017-12-25T12:44:33.012Z,4.77
2017-12-25T12:47:00.958Z,5.30
2017-12-25T12:49:28.644Z,4.93
2017-12-25T12:51:56.329Z,5.13
2017-12-25T12:54:25.015Z,5.63
2017-12-25T12:56:53.956Z,6.93
2017-12-25T12:59:21.601Z,7.33
2017-12-25T13:01:49.257Z,7.53
2017-12-25T13:04:16.965Z,7.43
2017-12-25T13:06:44.661Z,8.07
2017-12-25T13:09:12.341Z,7.00
2017-12-25T13:11:40.044Z,7.03
2017-12-25T13:14:09.401Z,6.97
2017-12-25T13:16:37.832Z,7.63
2017-12-25T13:19:05.545Z,6.73
2017-12-25T13:21:33.205Z,8.10
2017-12-25T13:24:01.679Z,8.27
2017-12-25T13:26:29.353Z,8.67
2017-12-25T13:28:57.045Z,8.87
2017-12-25T13:31:24.746Z,8.23
2017-12-25T13:33:52.477Z,9.23
2017-12-25T13:36:20.111Z,8.27
2017-12-25T13:38:47.794Z,9.47
2017-12-25T13:41:15.612Z,8.80
2017-12-25T13:43:43.336Z,8.37
2017-12-25T13:46:11.033Z,8.10
2017-12-25T13:48:38.712Z,8.77
2017-12-25T13:51:06.435Z,8.37
2017-12-25T13:53:34.138Z,7.73
2017-12-25T13:56:02.592Z,7.83
2017-12-25T13:58:30.289Z,7.10
2017-12-25T14:00:58.749Z,6.30
2017-12-25T14:03:32.168Z,6.10
2017-12-25T14:05:59.896Z,5.63
2017-12-25T14:08:27.608Z,5.67
2017-12-25T14:10:55.282Z,5.37
2017-12-25T14:13:22.952Z,5.80
2017-12-25T14:15:50.664Z,5.87
2017-12-25T14:18:18.351Z,6.40
2017-12-25T14:20:46.823Z,5.37
2017-12-25T14:23:14.862Z,6.20
2017-12-25T14:25:51.228Z,6.07
2017-12-25T14:28:19.300Z,5.57
2017-12-25T14:30:47.035Z,6.00
2017-12-25T14:33:14.732Z,6.20
2017-12-25T14:35:47.012Z,5.60
2017-12-25T14:38:15.828Z,5.83
2017-12-25T14:40:43.509Z,5.87
2017-12-25T14:43:11.948Z,6.13
2017-12-25T14:45:39.657Z,6.50
2017-12-25T14:48:08.148Z,6.33
2017-12-25T14:50:35.871Z,5.83
2017-12-25T14:53:03.548Z,5.90
2017-12-25T14:55:31.406Z,6.00
2017-12-25T14:57:59.158Z,6.33
2017-12-25T15:00:26.925Z,6.43
2017-12-25T15:02:54.639Z,5.77
2017-12-25T15:05:22.321Z,6.10
2017-12-25T15:07:49.997Z,6.30
2017-12-25T15:10:17.673Z,6.03
2017-12-25T15:12:45.376Z,6.00
2017-12-25T15:15:13.817Z,5.70
2017-12-25T15:17:41.509Z,6.53
2017-12-25T15:20:09.184Z,6.37
2017-12-25T15:22:36.875Z,6.47
2017-12-25T15:25:05.832Z,6.93
2017-12-25T15:27:33.542Z,6.13
2017-12-25T15:30:01.256Z,6.73
2017-12-25T15:32:28.943Z,6.50
2017-12-25T15:34:56.631Z,7.03
2017-12-25T15:37:24.312Z,7.23
2017-12-25T15:39:52.004Z,6.87
2017-12-25T15:42:19.723Z,7.50
2017-12-25T15:44:47.362Z,7.50
2017-12-25T15:47:15.044Z,8.10
2017-12-25T15:49:42.763Z,7.87
2017-12-25T15:52:10.480Z,8.40
2017-12-25T15:54:41.158Z,7.20
2017-12-25T15:57:08.845Z,7.67
2017-12-25T15:59:37.341Z,6.93
2017-12-25T16:02:05.034Z,7.03
2017-12-25T16:04:32.641Z,6.47
2017-12-25T16:07:00.358Z,6.53
2017-12-25T16:09:28.126Z,6.77
2017-12-25T16:11:55.725Z,6.93
2017-12-25T16:14:23.384Z,6.63
2017-12-25T16:16:51.064Z,6.57
2017-12-25T16:19:18.758Z,6.73
2017-12-25T16:21:46.469Z,6.17
2017-12-25T16:24:17.644Z,6.37
2017-12-25T16:26:46.093Z,5.50
2017-12-25T16:29:13.802Z,6.03
2017-12-25T16:31:41.513Z,5.80
2017-12-25T16:34:09.232Z,6.10
2017-12-25T16:36:36.958Z,5.77
2017-12-25T16:39:04.731Z,6.27
2017-12-25T16:41:32.434Z,5.10
2017-12-25T16:44:00.106Z,5.30
2017-12-25T16:46:27.926Z,5.13
2017-12-25T16:48:55.680Z,4.50
2017-12-25T16:51:23.407Z,4.13
2017-12-25T16:53:52.012Z,4.27
2017-12-25T16:56:19.705Z,4.70
2017-12-25T16:58:47.406Z,4.60
2017-12-25T17:01:15.115Z,4.33
2017-12-25T17:03:42.825Z,4.37
2017-12-25T17:06:10.525Z,4.30
2017-12-25T17:08:38.206Z,4.33
2017-12-25T17:11:05.895Z,4.53
2017-12-25T17:13:33.587Z,4.30
2017-12-25T17:16:02.317Z,4.80
2017-12-25T17:18:29.986Z,4.57
2017-12-25T17:20:57.686Z,4.97
2017-12-25T17:23:25.404Z,4.57
2017-12-25T17:25:53.100Z,4.70
2017-12-25T17:28:20.792Z,5.00
2017-12-25T17:30:48.498Z,4.90
2017-12-25T17:33:16.211Z,4.97
2017-12-25T17:35:43.852Z,4.93
2017-12-25T17:38:11.530Z,5.37
2017-12-25T17:40:40.024Z,5.10
2017-12-25T17:43:07.715Z,5.53
2017-12-25T17:45:39.181Z,5.53
2017-12-25T17:48:06.896Z,5.63
2017-12-25T17:50:35.340Z,5.77
2017-12-25T17:53:03.041Z,6.23
2017-12-25T17:55:31.499Z,5.90
2017-12-25T17:57:59.542Z,6.13
2017-12-25T18:00:27.255Z,6.70
2017-12-25T18:02:55.705Z,7.07
2017-12-25T18:05:23.336Z,6.87
2017-12-25T18:07:51.057Z,7.10
2017-12-25T18:10:18.766Z,6.87
2017-12-25T18:12:46.494Z,6.30
2017-12-25T18:15:18.011Z,6.23
2017-12-25T18:17:45.743Z,7.07
2017-12-25T18:20:13.473Z,7.00
2017-12-25T18:22:41.119Z,5.60
2017-12-25T18:25:08.818Z,5.93
2017-12-25T18:27:36.507Z,6.17
2017-12-25T18:30:04.508Z,5.80
2017-12-25T18:32:32.419Z,5.90
2017-12-25T18:35:00.144Z,5.97
2017-12-25T18:37:28.168Z,5.63
2017-12-25T18:39:55.836Z,5.77
2017-12-25T18:42:23.521Z,4.87
2017-12-25T18:44:54.547Z,4.27
2017-12-25T18:47:22.367Z,3.00
2017-12-25T18:49:50.099Z,3.20
2017-12-25T18:52:22.002Z,2.87
2017-12-25T18:54:50.367Z,2.70
2017-12-25T18:57:18.036Z,2.97
2017-12-25T18:59:45.693Z,3.07
2017-12-25T19:02:13.365Z,2.97
2017-12-25T19:04:45.382Z,2.90
2017-12-25T19:07:13.812Z,2.67
2017-12-25T19:09:42.319Z,2.93
2017-12-25T19:12:09.989Z,3.23
2017-12-25T19:14:37.713Z,2.90
2017-12-25T19:17:05.821Z,3.23
2017-12-25T19:19:33.486Z,3.23
2017-12-25T19:22:01.191Z,3.00
2017-12-25T19:24:28.914Z,3.50
2017-12-25T19:26:56.600Z,3.20
2017-12-25T19:29:24.689Z,3.37
2017-12-25T19:31:52.754Z,3.27
2017-12-25T19:34:23.718Z,3.20
2017-12-25T19:36:51.404Z,3.10
2017-12-25T19:39:19.099Z,3.20
2017-12-25T19:41:46.782Z,3.10
2017-12-25T19:44:14.436Z,3.37
2017-12-25T19:46:42.108Z,2.90
2017-12-25T19:49:09.782Z,3.00
2017-12-25T19:51:37.472Z,3.63
2017-12-25T19:54:05.174Z,3.47
2017-12-25T19:56:32.878Z,3.53
2017-12-25T19:59:00.587Z,3.50
2017-12-25T20:01:29.531Z,3.23
2017-12-25T20:03:59.236Z,3.50
2017-12-25T20:06:26.942Z,3.70
2017-12-25T20:08:55.394Z,3.57
2017-12-25T20:11:23.090Z,3.60
2017-12-25T20:13:51.561Z,3.60
2017-12-25T20:16:19.315Z,3.47
2017-12-25T20:18:46.971Z,3.63
2017-12-25T20:21:14.672Z,3.87
2017-12-25T20:23:42.364Z,3.60
2017-12-25T20:26:10.177Z,4.00
2017-12-25T20:28:37.933Z,3.73
2017-12-25T20:31:05.632Z,3.50
2017-12-25T20:33:34.156Z,3.40
2017-12-25T20:36:01.879Z,3.60
2017-12-25T20:38:29.724Z,4.10
2017-12-25T20:40:57.426Z,3.97
2017-12-25T20:43:25.105Z,3.80
2017-12-25T20:45:52.784Z,3.90
2017-12-25T20:48:20.470Z,3.80
2017-12-25T20:50:48.129Z,4.10
2017-12-25T20:53:15.835Z,3.83
2017-12-25T20:55:45.743Z,3.77
2017-12-25T20:58:14.230Z,3.87
2017-12-25T21:00:41.921Z,3.90
2017-12-25T21:03:09.584Z,3.67
2017-12-25T21:05:37.260Z,3.73
2017-12-25T21:08:04.989Z,3.60
2017-12-25T21:10:33.403Z,3.70
2017-12-25T21:13:01.861Z,3.40
2017-12-25T21:15:29.536Z,3.30
2017-12-25T21:17:57.237Z,3.77
2017-12-25T21:20:25.260Z,3.63
2017-12-25T21:22:52.964Z,3.73
2017-12-25T21:25:23.832Z,3.03
2017-12-25T21:27:52.289Z,3.40
2017-12-25T21:30:19.977Z,3.40
2017-12-25T21:32:47.704Z,3.00
2017-12-25T21:35:15.378Z,3.37
2017-12-25T21:37:43.045Z,2.80
2017-12-25T21:40:10.745Z,3.23
2017-12-25T21:42:39.248Z,3.53
2017-12-25T21:45:06.971Z,3.40
2017-12-25T21:47:34.704Z,3.10
2017-12-25T21:50:02.396Z,3.20
2017-12-25T21:52:30.063Z,3.20
2017-12-25T21:55:01.130Z,3.40
2017-12-25T21:57:28.852Z,3.37
2017-12-25T21:59:56.516Z,3.33
2017-12-25T22:02:24.205Z,3.10
2017-12-25T22:04:51.903Z,3.50
2017-12-25T22:07:19.587Z,3.70
2017-12-25T22:09:47.273Z,3.60
2017-12-25T22:12:14.969Z,3.53
2017-12-25T22:14:43.437Z,3.70
2017-12-25T22:17:11.104Z,3.77
2017-12-25T22:19:39.080Z,3.70
2017-12-25T22:22:07.538Z,4.00
2017-12-25T22:24:38.905Z,3.80
2017-12-25T22:27:06.593Z,3.70
2017-12-25T22:29:34.246Z,3.70
2017-12-25T22:32:02.720Z,4.50
2017-12-25T22:34:31.166Z,4.00
2017-12-25T22:36:58.801Z,4.37
2017-12-25T22:39:26.501Z,4.70
2017-12-25T22:41:54.203Z,4.50
2017-12-25T22:44:21.873Z,4.73
2017-12-25T22:46:49.589Z,4.40
2017-12-25T22:49:17.240Z,4.93
2017-12-25T22:51:44.913Z,5.27
2017-12-25T22:54:13.798Z,5.03
2017-12-25T22:56:41.500Z,5.20
2017-12-25T22:59:09.949Z,5.20
2017-12-25T23:01:37.663Z,4.70
2017-12-25T23:04:05.321Z,5.77
2017-12-25T23:06:33.810Z,5.70
2017-12-25T23:09:01.557Z,5.63
2017-12-25T23:11:30.044Z,5.47
2017-12-25T23:16:30.718Z,5.80
2017-12-25T23:18:58.435Z,5.90
2017-12-25T23:21:31.671Z,5.93
2017-12-25T23:23:59.396Z,5.50
2017-12-25T23:26:27.083Z,5.70
2017-12-25T23:28:55.531Z,5.80
2017-12-25T23:31:23.201Z,6.17
2017-12-25T23:33:51.881Z,5.83
2017-12-25T23:36:19.580Z,5.43
2017-12-25T23:38:48.037Z,5.67
2017-12-25T23:41:15.734Z,5.40
2017-12-25T23:43:43.420Z,6.20
2017-12-25T23:46:11.119Z,5.90
2017-12-25T23:48:38.849Z,6.90
2017-12-25T23:51:06.570Z,6.00
2017-12-25T23:53:35.082Z,6.53
2017-12-25T23:56:06.238Z,6.50
2017-12-25T23:58:39.864Z,6.27
